createdAt,value
2017-10-08T00:00:32.713Z,0
2017-10-08T00:01:41.545Z,0
2017-10-08T00:02:50.379Z,0
2017-10-08T00:03:59.363Z,0
2017-10-08T00:05:08.194Z,0
2017-10-08T00:06:17.024Z,0
2017-10-08T00:07:25.854Z,0
2017-10-08T00:08:34.686Z,0
2017-10-08T00:09:43.668Z,0
2017-10-08T00:10:52.831Z,0
2017-10-08T00:12:01.663Z,0
2017-10-08T00:13:10.495Z,0
2017-10-08T00:14:19.327Z,0
2017-10-08T00:15:28.209Z,0
2017-10-08T00:16:37.039Z,0
2017-10-08T00:17:45.871Z,0
2017-10-08T00:18:54.701Z,0
2017-10-08T00:20:03.532Z,0
2017-10-08T00:21:12.517Z,0
2017-10-08T00:22:21.349Z,0
2017-10-08T00:23:30.181Z,0
2017-10-08T00:24:39.013Z,0
2017-10-08T00:25:47.845Z,0
2017-10-08T00:26:56.826Z,0
2017-10-08T00:28:05.656Z,0
2017-10-08T00:29:14.487Z,0
2017-10-08T00:30:23.319Z,0
2017-10-08T00:31:32.150Z,0
2017-10-08T00:32:41.282Z,0
2017-10-08T00:33:50.110Z,0
2017-10-08T00:34:58.941Z,0
2017-10-08T00:36:07.772Z,0
2017-10-08T00:37:16.605Z,0
2017-10-08T00:38:25.639Z,0
2017-10-08T00:39:34.467Z,0
2017-10-08T00:40:43.296Z,0
2017-10-08T00:41:52.127Z,0
2017-10-08T00:43:00.959Z,0
2017-10-08T00:44:09.890Z,0
2017-10-08T00:45:18.722Z,0
2017-10-08T00:46:27.553Z,0
2017-10-08T00:47:36.385Z,0
2017-10-08T00:48:45.217Z,0
2017-10-08T00:49:54.099Z,0
2017-10-08T00:51:02.933Z,0
2017-10-08T00:52:11.766Z,0
2017-10-08T00:53:20.597Z,0
2017-10-08T00:54:29.430Z,0
2017-10-08T00:55:38.412Z,0
2017-10-08T00:56:47.242Z,0
2017-10-08T00:57:56.072Z,0
2017-10-08T00:59:04.903Z,0
2017-10-08T01:00:13.735Z,0
2017-10-08T01:01:22.947Z,0
2017-10-08T01:02:31.778Z,0
2017-10-08T01:03:40.944Z,0
2017-10-08T01:04:49.775Z,0
2017-10-08T01:05:58.605Z,0
2017-10-08T01:07:07.536Z,0
2017-10-08T01:08:16.368Z,0
2017-10-08T01:09:25.199Z,0
2017-10-08T01:10:34.037Z,0
2017-10-08T01:11:42.868Z,0
2017-10-08T01:12:51.951Z,0
2017-10-08T01:14:00.784Z,0
2017-10-08T01:15:09.616Z,0
2017-10-08T01:16:18.450Z,0
2017-10-08T01:17:27.286Z,0
2017-10-08T01:18:36.546Z,0
2017-10-08T01:19:45.375Z,0
2017-10-08T01:20:54.208Z,0
2017-10-08T01:22:03.042Z,0
2017-10-08T01:23:11.875Z,0
2017-10-08T01:24:20.906Z,0
2017-10-08T01:25:29.738Z,0
2017-10-08T01:26:38.569Z,0
2017-10-08T01:27:47.401Z,0
2017-10-08T01:28:56.234Z,0
2017-10-08T01:30:05.216Z,0
2017-10-08T01:31:14.048Z,0
2017-10-08T01:32:22.877Z,0
2017-10-08T01:33:31.707Z,0
2017-10-08T01:34:40.539Z,0
2017-10-08T01:35:49.523Z,0
2017-10-08T01:36:58.351Z,0
2017-10-08T01:38:07.180Z,0
2017-10-08T01:39:16.013Z,0
2017-10-08T01:40:24.844Z,0
2017-10-08T01:41:33.928Z,0
2017-10-08T01:42:42.760Z,0
2017-10-08T01:43:51.589Z,0
2017-10-08T01:45:00.422Z,0
2017-10-08T01:46:09.251Z,0
2017-10-08T01:47:18.333Z,0
2017-10-08T01:48:27.496Z,0
2017-10-08T01:49:36.655Z,0
2017-10-08T01:50:45.486Z,0
2017-10-08T01:51:54.319Z,0
2017-10-08T01:53:03.353Z,0
2017-10-08T01:54:12.186Z,0
2017-10-08T01:55:21.018Z,0
2017-10-08T01:56:29.850Z,0
2017-10-08T01:57:38.680Z,0
2017-10-08T01:58:47.811Z,0
2017-10-08T01:59:56.644Z,0
2017-10-08T02:01:05.477Z,0
2017-10-08T02:02:14.308Z,0
2017-10-08T02:03:23.141Z,0
2017-10-08T02:04:32.123Z,0
2017-10-08T02:05:40.955Z,0
2017-10-08T02:06:49.783Z,0
2017-10-08T02:07:58.615Z,0
2017-10-08T02:09:07.447Z,0
2017-10-08T02:10:16.331Z,0
2017-10-08T02:11:25.165Z,0
2017-10-08T02:12:34.000Z,0
2017-10-08T02:13:42.831Z,0
2017-10-08T02:14:51.664Z,0
2017-10-08T02:16:00.647Z,0
2017-10-08T02:17:09.479Z,0
2017-10-08T02:18:18.311Z,0
2017-10-08T02:19:27.144Z,0
2017-10-08T02:20:35.972Z,0
2017-10-08T02:21:44.905Z,0
2017-10-08T02:22:53.735Z,0
2017-10-08T02:24:02.567Z,0
2017-10-08T02:25:11.399Z,0
2017-10-08T02:26:20.234Z,0
2017-10-08T02:27:29.065Z,0
2017-10-08T02:28:37.895Z,0
2017-10-08T02:29:46.729Z,0
2017-10-08T02:30:55.561Z,0
2017-10-08T02:32:04.396Z,0
2017-10-08T02:33:13.426Z,0
2017-10-08T02:34:22.258Z,0
2017-10-08T02:35:31.089Z,0
2017-10-08T02:36:39.923Z,0
2017-10-08T02:37:48.752Z,0
2017-10-08T02:38:57.682Z,0
2017-10-08T02:40:06.513Z,0
2017-10-08T02:41:15.345Z,0
2017-10-08T02:42:24.182Z,0
2017-10-08T02:43:33.351Z,0
2017-10-08T02:44:42.332Z,0
2017-10-08T02:45:51.164Z,0
2017-10-08T02:46:59.996Z,0
2017-10-08T02:48:08.828Z,0
2017-10-08T02:49:17.990Z,0
2017-10-08T02:50:26.873Z,0
2017-10-08T02:51:35.703Z,0
2017-10-08T02:52:44.532Z,0
2017-10-08T02:53:53.363Z,0
2017-10-08T02:55:02.194Z,0
2017-10-08T02:56:11.027Z,0
2017-10-08T02:57:19.858Z,0
2017-10-08T02:58:28.687Z,0
2017-10-08T02:59:37.519Z,0
2017-10-08T03:00:46.353Z,0
2017-10-08T03:01:55.236Z,0
2017-10-08T03:03:04.068Z,0
2017-10-08T03:04:12.899Z,0
2017-10-08T03:05:21.729Z,0
2017-10-08T03:06:30.562Z,0
2017-10-08T03:07:39.545Z,0
2017-10-08T03:08:48.379Z,0
2017-10-08T03:09:57.210Z,0
2017-10-08T03:11:06.042Z,0
2017-10-08T03:12:14.874Z,0
2017-10-08T03:13:23.802Z,0
2017-10-08T03:14:32.633Z,0
2017-10-08T03:15:41.465Z,0
2017-10-08T03:16:50.297Z,0
2017-10-08T03:17:59.129Z,0
2017-10-08T03:19:08.111Z,0
2017-10-08T03:20:16.940Z,0
2017-10-08T03:21:25.772Z,0
2017-10-08T03:22:34.603Z,0
2017-10-08T03:23:43.435Z,0
2017-10-08T03:24:52.318Z,0
2017-10-08T03:26:01.202Z,0
2017-10-08T03:27:10.031Z,0
2017-10-08T03:28:19.194Z,0
2017-10-08T03:29:28.023Z,0
2017-10-08T03:30:37.104Z,0
2017-10-08T03:31:45.935Z,0
2017-10-08T03:32:54.768Z,0
2017-10-08T03:34:03.599Z,0
2017-10-08T03:35:12.764Z,0
2017-10-08T03:36:21.896Z,0
2017-10-08T03:37:30.727Z,0
2017-10-08T03:38:39.557Z,0
2017-10-08T03:39:48.385Z,0
2017-10-08T03:40:57.215Z,0
2017-10-08T03:42:06.097Z,0
2017-10-08T03:43:14.927Z,0
2017-10-08T03:44:23.758Z,0
2017-10-08T03:45:32.589Z,0
2017-10-08T03:46:41.421Z,0
2017-10-08T03:47:50.658Z,0
2017-10-08T03:48:59.491Z,0
2017-10-08T03:50:08.325Z,0
2017-10-08T03:51:17.155Z,0
2017-10-08T03:52:25.987Z,0
2017-10-08T03:53:35.069Z,0
2017-10-08T03:54:43.899Z,0
2017-10-08T03:55:52.730Z,0
2017-10-08T03:57:01.611Z,0
2017-10-08T03:58:10.445Z,0
2017-10-08T03:59:19.425Z,0
2017-10-08T04:00:28.255Z,0
2017-10-08T04:01:37.085Z,0
2017-10-08T04:02:45.914Z,0
2017-10-08T04:03:54.746Z,0
2017-10-08T04:05:04.064Z,0
2017-10-08T04:06:12.894Z,0
2017-10-08T04:07:21.726Z,0
2017-10-08T04:08:30.559Z,0
2017-10-08T04:09:39.389Z,0
2017-10-08T04:10:48.369Z,0
2017-10-08T04:11:57.201Z,0
2017-10-08T04:13:06.031Z,0
2017-10-08T04:14:14.862Z,0
2017-10-08T04:15:23.694Z,0
2017-10-08T04:16:32.574Z,0
2017-10-08T04:17:41.734Z,0
2017-10-08T04:18:50.569Z,0
2017-10-08T04:19:59.399Z,0
2017-10-08T04:21:08.234Z,0
2017-10-08T04:22:17.063Z,0
2017-10-08T04:23:25.895Z,0
2017-10-08T04:24:34.729Z,0
2017-10-08T04:25:43.563Z,0
2017-10-08T04:26:52.396Z,0
2017-10-08T04:28:01.279Z,0
2017-10-08T04:29:10.109Z,0
2017-10-08T04:30:18.940Z,0
2017-10-08T04:31:27.771Z,0
2017-10-08T04:32:36.603Z,0
2017-10-08T04:33:45.585Z,0
2017-10-08T04:34:54.416Z,0
2017-10-08T04:36:03.247Z,0
2017-10-08T04:37:12.077Z,0
2017-10-08T04:38:20.908Z,0
2017-10-08T04:39:29.991Z,0
2017-10-08T04:40:38.823Z,0
2017-10-08T04:41:47.655Z,0
2017-10-08T04:42:56.487Z,0
2017-10-08T04:44:05.314Z,0
2017-10-08T04:45:14.349Z,0
2017-10-08T04:46:23.179Z,0
2017-10-08T04:47:32.014Z,0
2017-10-08T04:48:40.845Z,0
2017-10-08T04:49:49.680Z,0
2017-10-08T04:50:58.609Z,0
2017-10-08T04:52:07.441Z,0
2017-10-08T04:53:16.605Z,0
2017-10-08T04:54:25.436Z,0
2017-10-08T04:55:34.597Z,0
2017-10-08T04:56:43.831Z,0
2017-10-08T04:57:52.657Z,0
2017-10-08T04:59:01.498Z,0
2017-10-08T05:00:10.334Z,0
2017-10-08T05:01:19.188Z,0
2017-10-08T05:02:28.297Z,0
2017-10-08T05:03:37.468Z,0
2017-10-08T05:04:46.298Z,0
2017-10-08T05:05:55.132Z,0
2017-10-08T05:07:03.964Z,0
2017-10-08T05:08:12.845Z,0
2017-10-08T05:09:21.676Z,0
2017-10-08T05:10:30.507Z,0
2017-10-08T05:11:39.337Z,0
2017-10-08T05:12:48.170Z,4
2017-10-08T05:13:57.204Z,0
2017-10-08T05:15:06.040Z,4
2017-10-08T05:16:14.869Z,4
2017-10-08T05:17:23.704Z,4
2017-10-08T05:18:32.866Z,8
2017-10-08T05:19:41.849Z,8
2017-10-08T05:20:50.678Z,8
2017-10-08T05:21:59.509Z,12
2017-10-08T05:23:08.337Z,12
2017-10-08T05:24:17.502Z,16
2017-10-08T05:25:26.334Z,16
2017-10-08T05:26:35.165Z,16
2017-10-08T05:27:43.994Z,24
2017-10-08T05:28:52.826Z,24
2017-10-08T05:30:01.657Z,36
2017-10-08T05:31:10.691Z,36
2017-10-08T05:32:19.524Z,44
2017-10-08T05:33:28.356Z,48
2017-10-08T05:34:37.188Z,56
2017-10-08T05:35:46.019Z,64
2017-10-08T05:36:54.950Z,72
2017-10-08T05:38:03.780Z,80
2017-10-08T05:39:12.612Z,88
2017-10-08T05:40:21.443Z,96
2017-10-08T05:41:30.278Z,108
2017-10-08T05:42:39.111Z,116
2017-10-08T05:43:47.943Z,120
2017-10-08T05:44:56.776Z,128
2017-10-08T05:46:05.940Z,140
2017-10-08T05:47:14.772Z,144
2017-10-08T05:48:23.853Z,152
2017-10-08T05:49:32.687Z,168
2017-10-08T05:50:41.516Z,176
2017-10-08T05:51:50.345Z,176
2017-10-08T05:52:59.177Z,192
2017-10-08T05:54:08.012Z,204
2017-10-08T05:55:16.844Z,204
2017-10-08T05:56:25.675Z,216
2017-10-08T05:57:34.507Z,228
2017-10-08T05:58:43.340Z,232
2017-10-08T05:59:52.320Z,260
2017-10-08T06:01:01.148Z,284
2017-10-08T06:02:10.312Z,308
2017-10-08T06:03:19.138Z,372
2017-10-08T06:04:27.972Z,356
2017-10-08T06:05:36.855Z,368
2017-10-08T06:06:45.688Z,404
2017-10-08T06:07:54.521Z,428
2017-10-08T06:09:03.352Z,468
2017-10-08T06:10:12.518Z,524
2017-10-08T06:11:21.448Z,564
2017-10-08T06:12:30.281Z,600
2017-10-08T06:13:39.115Z,624
2017-10-08T06:14:47.946Z,572
2017-10-08T06:15:56.778Z,548
2017-10-08T06:17:05.760Z,540
2017-10-08T06:18:14.590Z,548
2017-10-08T06:19:23.419Z,548
2017-10-08T06:20:32.250Z,564
2017-10-08T06:21:41.083Z,564
2017-10-08T06:22:50.298Z,572
2017-10-08T06:23:59.129Z,584
2017-10-08T06:25:07.958Z,608
2017-10-08T06:26:16.789Z,660
2017-10-08T06:27:25.621Z,724
2017-10-08T06:28:34.550Z,768
2017-10-08T06:29:43.383Z,776
2017-10-08T06:30:52.212Z,728
2017-10-08T06:32:01.043Z,656
2017-10-08T06:33:09.874Z,664
2017-10-08T06:34:18.807Z,716
2017-10-08T06:35:27.639Z,768
2017-10-08T06:36:36.471Z,788
2017-10-08T06:37:45.300Z,764
2017-10-08T06:38:54.465Z,772
2017-10-08T06:40:03.395Z,908
2017-10-08T06:41:12.227Z,996
2017-10-08T06:42:21.058Z,884
2017-10-08T06:43:29.886Z,836
2017-10-08T06:44:39.054Z,860
2017-10-08T06:45:47.887Z,912
2017-10-08T06:46:56.721Z,836
2017-10-08T06:48:05.551Z,872
2017-10-08T06:49:14.382Z,972
2017-10-08T06:50:23.213Z,1044
2017-10-08T06:51:32.147Z,992
2017-10-08T06:52:40.977Z,996
2017-10-08T06:53:49.810Z,1036
2017-10-08T06:54:58.641Z,1016
2017-10-08T06:56:07.475Z,1116
2017-10-08T06:57:16.457Z,1048
2017-10-08T06:58:25.290Z,1052
2017-10-08T06:59:34.116Z,984
2017-10-08T07:00:42.949Z,980
2017-10-08T07:01:51.781Z,940
2017-10-08T07:03:00.815Z,948
2017-10-08T07:04:09.644Z,932
2017-10-08T07:05:18.804Z,956
2017-10-08T07:06:27.637Z,972
2017-10-08T07:07:36.472Z,972
2017-10-08T07:08:45.453Z,1016
2017-10-08T07:09:54.285Z,1088
2017-10-08T07:11:03.120Z,1216
2017-10-08T07:12:11.947Z,1228
2017-10-08T07:13:20.778Z,1184
2017-10-08T07:14:29.608Z,1084
2017-10-08T07:15:38.441Z,1128
2017-10-08T07:16:47.270Z,1216
2017-10-08T07:17:56.101Z,1408
2017-10-08T07:19:04.930Z,1340
2017-10-08T07:20:13.962Z,1340
2017-10-08T07:21:22.792Z,1504
2017-10-08T07:22:31.623Z,1544
2017-10-08T07:23:40.453Z,1836
2017-10-08T07:24:49.284Z,1876
2017-10-08T07:25:58.166Z,1732
2017-10-08T07:27:06.997Z,1696
2017-10-08T07:28:16.193Z,1660
2017-10-08T07:29:25.025Z,1500
2017-10-08T07:30:33.863Z,1568
2017-10-08T07:31:43.174Z,1536
2017-10-08T07:32:52.005Z,1860
2017-10-08T07:34:00.835Z,2180
2017-10-08T07:35:09.668Z,2092
2017-10-08T07:36:18.830Z,2032
2017-10-08T07:37:27.659Z,2216
2017-10-08T07:38:36.492Z,2056
2017-10-08T07:39:45.322Z,2164
2017-10-08T07:40:54.154Z,2076
2017-10-08T07:42:02.986Z,1696
2017-10-08T07:43:12.017Z,1460
2017-10-08T07:44:20.847Z,1176
2017-10-08T07:45:29.679Z,1068
2017-10-08T07:46:38.512Z,1116
2017-10-08T07:47:47.678Z,1104
2017-10-08T07:48:56.758Z,1168
2017-10-08T07:50:05.590Z,1352
2017-10-08T07:51:14.426Z,1388
2017-10-08T07:52:23.258Z,1344
2017-10-08T07:53:32.090Z,1256
2017-10-08T07:54:41.223Z,1232
2017-10-08T07:55:50.054Z,1220
2017-10-08T07:56:58.881Z,1220
2017-10-08T07:58:07.714Z,1192
2017-10-08T07:59:16.547Z,1128
2017-10-08T08:00:25.530Z,1116
2017-10-08T08:01:34.363Z,1108
2017-10-08T08:02:43.193Z,1104
2017-10-08T08:03:52.024Z,1104
2017-10-08T08:05:00.859Z,1108
2017-10-08T08:06:09.942Z,1116
2017-10-08T08:07:18.773Z,1120
2017-10-08T08:08:27.602Z,1124
2017-10-08T08:09:36.435Z,1136
2017-10-08T08:10:45.268Z,1144
2017-10-08T08:11:54.249Z,1156
2017-10-08T08:13:03.081Z,1172
2017-10-08T08:14:11.910Z,1188
2017-10-08T08:15:20.741Z,1216
2017-10-08T08:16:29.572Z,1248
2017-10-08T08:17:38.603Z,1280
2017-10-08T08:18:47.435Z,1324
2017-10-08T08:19:56.264Z,1364
2017-10-08T08:21:05.098Z,1408
2017-10-08T08:22:13.928Z,1504
2017-10-08T08:23:22.912Z,1864
2017-10-08T08:24:31.742Z,2468
2017-10-08T08:25:40.574Z,1792
2017-10-08T08:26:49.406Z,1900
2017-10-08T08:27:58.238Z,1508
2017-10-08T08:29:07.220Z,1428
2017-10-08T08:30:16.052Z,1308
2017-10-08T08:31:25.215Z,1284
2017-10-08T08:32:34.043Z,1360
2017-10-08T08:33:42.873Z,1332
2017-10-08T08:34:52.056Z,1324
2017-10-08T08:36:00.911Z,1352
2017-10-08T08:37:09.718Z,1368
2017-10-08T08:38:18.549Z,1284
2017-10-08T08:39:27.380Z,1292
2017-10-08T08:40:36.213Z,1284
2017-10-08T08:41:45.047Z,1280
2017-10-08T08:42:53.880Z,1292
2017-10-08T08:44:02.713Z,1288
2017-10-08T08:45:11.545Z,1284
2017-10-08T08:46:20.478Z,1284
2017-10-08T08:47:29.313Z,1280
2017-10-08T08:48:38.148Z,1272
2017-10-08T08:49:46.981Z,1280
2017-10-08T08:50:55.816Z,1276
2017-10-08T08:52:04.698Z,1276
2017-10-08T08:53:13.862Z,1276
2017-10-08T08:54:22.694Z,1268
2017-10-08T08:55:31.527Z,1268
2017-10-08T08:56:40.359Z,1272
2017-10-08T08:57:49.342Z,1268
2017-10-08T08:58:58.174Z,1260
2017-10-08T09:00:07.009Z,1264
2017-10-08T09:01:15.844Z,1260
2017-10-08T09:02:24.677Z,1264
2017-10-08T09:03:33.611Z,1268
2017-10-08T09:04:42.444Z,1264
2017-10-08T09:05:51.276Z,1264
2017-10-08T09:07:00.440Z,1272
2017-10-08T09:08:09.271Z,1276
2017-10-08T09:09:18.153Z,1276
2017-10-08T09:10:26.986Z,1276
2017-10-08T09:11:35.819Z,1288
2017-10-08T09:12:44.649Z,1284
2017-10-08T09:13:53.483Z,1276
2017-10-08T09:15:02.467Z,1280
2017-10-08T09:16:11.301Z,1288
2017-10-08T09:17:20.133Z,1304
2017-10-08T09:18:28.965Z,1304
2017-10-08T09:19:37.800Z,1308
2017-10-08T09:20:46.634Z,1316
2017-10-08T09:21:55.798Z,1332
2017-10-08T09:23:04.631Z,1336
2017-10-08T09:24:13.463Z,1412
2017-10-08T09:25:22.297Z,1760
2017-10-08T09:26:31.331Z,1668
2017-10-08T09:27:40.164Z,1632
2017-10-08T09:28:49.003Z,2008
2017-10-08T09:29:57.833Z,1452
2017-10-08T09:31:06.666Z,1508
2017-10-08T09:32:15.900Z,1440
2017-10-08T09:33:25.064Z,1352
2017-10-08T09:34:33.899Z,1616
2017-10-08T09:35:42.732Z,1648
2017-10-08T09:36:51.564Z,1856
2017-10-08T09:38:00.398Z,2316
2017-10-08T09:39:09.232Z,1552
2017-10-08T09:40:18.065Z,1592
2017-10-08T09:41:26.900Z,1620
2017-10-08T09:42:35.733Z,2000
2017-10-08T09:43:44.684Z,1840
2017-10-08T09:44:53.498Z,1812
2017-10-08T09:46:02.331Z,2008
2017-10-08T09:47:11.495Z,1828
2017-10-08T09:48:20.329Z,1820
2017-10-08T09:49:29.315Z,1996
2017-10-08T09:50:38.148Z,1776
2017-10-08T09:51:46.980Z,1756
2017-10-08T09:52:55.813Z,1820
2017-10-08T09:54:04.645Z,2056
2017-10-08T09:55:13.828Z,1704
2017-10-08T09:56:22.660Z,1732
2017-10-08T09:57:31.822Z,1712
2017-10-08T09:58:40.655Z,1860
2017-10-08T09:59:49.490Z,3504
2017-10-08T10:00:58.521Z,3600
2017-10-08T10:02:07.352Z,3000
2017-10-08T10:03:16.184Z,2348
2017-10-08T10:04:25.016Z,1852
2017-10-08T10:05:33.851Z,1760
2017-10-08T10:06:42.836Z,2008
2017-10-08T10:07:51.670Z,2596
2017-10-08T10:09:00.502Z,3396
2017-10-08T10:10:09.335Z,5884
2017-10-08T10:11:18.170Z,4800
2017-10-08T10:12:27.205Z,3200
2017-10-08T10:13:36.037Z,3336
2017-10-08T10:14:44.873Z,4076
2017-10-08T10:15:53.708Z,4212
2017-10-08T10:17:02.541Z,3756
2017-10-08T10:18:11.476Z,4148
2017-10-08T10:19:20.641Z,4268
2017-10-08T10:20:29.475Z,3692
2017-10-08T10:21:38.307Z,4092
2017-10-08T10:22:47.141Z,3912
2017-10-08T10:23:56.075Z,4448
2017-10-08T10:25:04.911Z,5000
2017-10-08T10:26:13.745Z,4472
2017-10-08T10:27:22.581Z,3764
2017-10-08T10:28:31.417Z,3860
2017-10-08T10:29:40.352Z,4040
2017-10-08T10:30:49.185Z,3796
2017-10-08T10:31:58.019Z,3300
2017-10-08T10:33:06.852Z,3536
2017-10-08T10:34:15.688Z,4464
2017-10-08T10:35:24.672Z,4132
2017-10-08T10:36:33.507Z,3388
2017-10-08T10:37:42.344Z,2512
2017-10-08T10:38:51.180Z,2284
2017-10-08T10:40:00.014Z,2964
2017-10-08T10:41:08.900Z,4652
2017-10-08T10:42:17.735Z,6204
2017-10-08T10:43:26.902Z,4788
2017-10-08T10:44:35.735Z,3616
2017-10-08T10:45:44.569Z,2692
2017-10-08T10:46:53.552Z,2028
2017-10-08T10:48:02.387Z,2240
2017-10-08T10:49:11.220Z,3204
2017-10-08T10:50:20.051Z,3692
2017-10-08T10:51:28.893Z,3712
2017-10-08T10:52:37.724Z,3196
2017-10-08T10:53:46.555Z,2788
2017-10-08T10:54:55.391Z,2448
2017-10-08T10:56:04.228Z,2404
2017-10-08T10:57:13.060Z,2880
2017-10-08T10:58:22.047Z,2788
2017-10-08T10:59:30.880Z,3184
2017-10-08T11:00:39.714Z,3556
2017-10-08T11:01:48.546Z,3072
2017-10-08T11:02:57.389Z,2632
2017-10-08T11:04:06.522Z,2368
2017-10-08T11:05:15.358Z,2296
2017-10-08T11:06:24.194Z,2260
2017-10-08T11:07:33.027Z,2264
2017-10-08T11:08:41.866Z,2624
2017-10-08T11:09:50.849Z,2824
2017-10-08T11:10:59.683Z,2844
2017-10-08T11:12:08.516Z,2852
2017-10-08T11:13:17.353Z,2780
2017-10-08T11:14:26.185Z,3092
2017-10-08T11:15:35.068Z,3352
2017-10-08T11:16:43.902Z,3304
2017-10-08T11:17:52.735Z,3084
2017-10-08T11:19:01.570Z,2888
2017-10-08T11:20:10.403Z,2620
2017-10-08T11:21:19.236Z,2396
2017-10-08T11:22:28.069Z,2304
2017-10-08T11:23:36.902Z,2188
2017-10-08T11:24:45.734Z,2172
2017-10-08T11:25:54.567Z,2188
2017-10-08T11:27:03.501Z,2284
2017-10-08T11:28:12.337Z,2396
2017-10-08T11:29:21.169Z,2408
2017-10-08T11:30:30.001Z,2532
2017-10-08T11:31:38.837Z,2704
2017-10-08T11:32:47.823Z,2728
2017-10-08T11:33:56.656Z,2696
2017-10-08T11:35:05.492Z,2624
2017-10-08T11:36:14.325Z,2656
2017-10-08T11:37:23.160Z,2620
2017-10-08T11:38:32.145Z,2560
2017-10-08T11:39:40.978Z,2536
2017-10-08T11:40:49.813Z,2552
2017-10-08T11:41:58.795Z,2616
2017-10-08T11:43:07.630Z,2568
2017-10-08T11:44:16.867Z,2628
2017-10-08T11:45:25.701Z,3228
2017-10-08T11:46:34.535Z,7716
2017-10-08T11:47:43.368Z,20256
2017-10-08T11:48:52.204Z,17728
2017-10-08T11:50:01.139Z,17088
2017-10-08T11:51:09.976Z,13348
2017-10-08T11:52:18.809Z,9708
2017-10-08T11:53:27.642Z,16512
2017-10-08T11:54:36.477Z,16960
2017-10-08T11:55:45.462Z,28096
2017-10-08T11:56:54.300Z,21056
2017-10-08T11:58:03.136Z,6604
2017-10-08T11:59:11.971Z,11836
2017-10-08T12:00:20.805Z,8116
2017-10-08T12:01:29.638Z,5104
2017-10-08T12:02:38.473Z,8008
2017-10-08T12:03:47.309Z,7548
2017-10-08T12:04:56.145Z,10116
2017-10-08T12:06:05.316Z,5420
2017-10-08T12:07:14.354Z,3864
2017-10-08T12:08:23.188Z,4704
2017-10-08T12:09:32.024Z,4064
2017-10-08T12:10:40.859Z,4452
2017-10-08T12:11:49.693Z,5376
2017-10-08T12:12:58.530Z,8432
2017-10-08T12:14:07.369Z,5920
2017-10-08T12:15:16.208Z,4948
2017-10-08T12:16:25.045Z,4768
2017-10-08T12:17:33.879Z,4656
2017-10-08T12:18:42.965Z,4744
2017-10-08T12:19:51.801Z,4728
2017-10-08T12:21:00.643Z,3564
2017-10-08T12:22:09.479Z,3872
2017-10-08T12:23:18.315Z,3280
2017-10-08T12:24:27.209Z,3636
2017-10-08T12:25:36.046Z,4404
2017-10-08T12:26:44.880Z,4368
2017-10-08T12:27:53.717Z,4148
2017-10-08T12:29:02.553Z,4124
2017-10-08T12:30:11.443Z,4344
2017-10-08T12:31:20.280Z,5208
2017-10-08T12:32:29.114Z,3908
2017-10-08T12:33:37.951Z,6192
2017-10-08T12:34:46.789Z,4900
2017-10-08T12:35:55.669Z,4840
2017-10-08T12:37:04.505Z,3712
2017-10-08T12:38:13.365Z,7588
2017-10-08T12:39:22.178Z,10872
2017-10-08T12:40:31.018Z,17120
2017-10-08T12:41:40.055Z,21440
2017-10-08T12:42:48.890Z,5020
2017-10-08T12:43:57.725Z,2992
2017-10-08T12:45:06.564Z,7296
2017-10-08T12:46:15.401Z,7008
2017-10-08T12:47:24.337Z,6632
2017-10-08T12:48:33.174Z,5204
2017-10-08T12:49:42.009Z,5584
2017-10-08T12:50:50.842Z,5184
2017-10-08T12:51:59.677Z,5832
2017-10-08T12:53:08.665Z,2184
2017-10-08T12:54:17.501Z,4208
2017-10-08T12:55:26.338Z,6072
2017-10-08T12:56:35.506Z,13312
2017-10-08T12:57:44.674Z,5632
2017-10-08T12:58:53.630Z,7600
2017-10-08T13:00:02.448Z,5432
2017-10-08T13:01:11.285Z,5680
2017-10-08T13:02:20.123Z,4724
2017-10-08T13:03:28.959Z,4460
2017-10-08T13:04:37.846Z,4532
2017-10-08T13:05:46.683Z,10224
2017-10-08T13:06:55.519Z,12444
2017-10-08T13:08:04.356Z,6884
2017-10-08T13:09:13.192Z,6260
2017-10-08T13:10:22.078Z,6468
2017-10-08T13:11:30.916Z,7356
2017-10-08T13:12:39.752Z,5120
2017-10-08T13:13:48.589Z,4924
2017-10-08T13:14:57.428Z,4912
2017-10-08T13:16:06.365Z,6828
2017-10-08T13:17:15.202Z,5428
2017-10-08T13:18:24.039Z,7728
2017-10-08T13:19:32.876Z,17600
2017-10-08T13:20:41.715Z,13108
2017-10-08T13:21:50.701Z,12456
2017-10-08T13:22:59.537Z,13380
2017-10-08T13:24:08.375Z,9580
2017-10-08T13:25:17.210Z,7776
2017-10-08T13:26:26.048Z,9180
2017-10-08T13:27:34.935Z,11036
2017-10-08T13:28:43.772Z,7616
2017-10-08T13:29:52.607Z,5356
2017-10-08T13:31:01.444Z,5444
2017-10-08T13:32:10.281Z,8812
2017-10-08T13:33:19.220Z,11452
2017-10-08T13:34:28.059Z,8436
2017-10-08T13:35:36.896Z,8660
2017-10-08T13:36:45.735Z,10308
2017-10-08T13:37:54.573Z,6468
2017-10-08T13:39:03.510Z,9112
2017-10-08T13:40:12.345Z,14784
2017-10-08T13:41:21.185Z,16480
2017-10-08T13:42:30.023Z,9324
2017-10-08T13:43:39.192Z,9092
2017-10-08T13:44:48.132Z,7736
2017-10-08T13:45:56.972Z,9224
2017-10-08T13:47:05.813Z,5376
2017-10-08T13:48:14.651Z,6912
2017-10-08T13:49:23.490Z,6076
2017-10-08T13:50:32.955Z,5604
2017-10-08T13:51:41.796Z,6320
2017-10-08T13:52:50.635Z,10132
2017-10-08T13:53:59.473Z,11420
2017-10-08T13:55:08.643Z,6780
2017-10-08T13:56:17.635Z,10972
2017-10-08T13:57:26.469Z,9112
2017-10-08T13:58:35.333Z,4920
2017-10-08T13:59:44.504Z,8596
2017-10-08T14:00:53.344Z,6908
2017-10-08T14:02:02.334Z,5236
2017-10-08T14:03:11.171Z,4688
2017-10-08T14:04:20.011Z,5916
2017-10-08T14:05:28.850Z,4888
2017-10-08T14:06:37.687Z,5164
2017-10-08T14:07:47.152Z,5328
2017-10-08T14:08:55.991Z,13740
2017-10-08T14:10:04.855Z,24896
2017-10-08T14:11:13.666Z,16096
2017-10-08T14:12:22.502Z,6496
2017-10-08T14:13:31.591Z,8864
2017-10-08T14:14:40.429Z,5588
2017-10-08T14:15:49.265Z,5572
2017-10-08T14:16:58.105Z,10948
2017-10-08T14:18:06.944Z,7364
2017-10-08T14:19:15.980Z,12164
2017-10-08T14:20:25.152Z,13504
2017-10-08T14:21:33.988Z,15872
2017-10-08T14:22:42.825Z,12636
2017-10-08T14:23:51.665Z,9520
2017-10-08T14:25:00.806Z,4940
2017-10-08T14:26:09.643Z,2476
2017-10-08T14:27:18.812Z,2772
2017-10-08T14:28:27.980Z,3192
2017-10-08T14:29:36.818Z,2992
2017-10-08T14:30:45.755Z,2800
2017-10-08T14:31:54.591Z,2328
2017-10-08T14:33:03.755Z,2200
2017-10-08T14:34:12.928Z,2364
2017-10-08T14:35:22.109Z,2364
2017-10-08T14:36:31.046Z,2368
2017-10-08T14:37:39.879Z,2664
2017-10-08T14:38:48.716Z,2968
2017-10-08T14:39:57.553Z,3696
2017-10-08T14:41:06.717Z,4336
2017-10-08T14:42:15.703Z,4368
2017-10-08T14:43:24.539Z,4408
2017-10-08T14:44:33.707Z,4688
2017-10-08T14:45:42.539Z,3904
2017-10-08T14:46:51.375Z,2524
2017-10-08T14:48:00.311Z,2508
2017-10-08T14:49:09.147Z,2540
2017-10-08T14:50:17.982Z,2772
2017-10-08T14:51:26.817Z,2732
2017-10-08T14:52:35.652Z,2676
2017-10-08T14:53:44.485Z,2284
2017-10-08T14:54:53.323Z,2160
2017-10-08T14:56:02.157Z,2204
2017-10-08T14:57:10.993Z,2216
2017-10-08T14:58:19.829Z,2332
2017-10-08T14:59:28.764Z,2472
2017-10-08T15:00:37.599Z,2500
2017-10-08T15:01:46.434Z,2700
2017-10-08T15:02:55.271Z,2860
2017-10-08T15:04:04.105Z,2716
2017-10-08T15:05:12.989Z,2656
2017-10-08T15:06:21.824Z,2604
2017-10-08T15:07:30.658Z,2780
2017-10-08T15:08:39.494Z,3088
2017-10-08T15:09:48.325Z,3436
2017-10-08T15:10:57.460Z,3856
2017-10-08T15:12:06.293Z,3848
2017-10-08T15:13:15.128Z,3544
2017-10-08T15:14:23.962Z,2996
2017-10-08T15:15:32.796Z,2636
2017-10-08T15:16:41.831Z,2520
2017-10-08T15:17:50.665Z,2232
2017-10-08T15:18:59.499Z,2048
2017-10-08T15:20:08.338Z,2264
2017-10-08T15:21:17.171Z,2420
2017-10-08T15:22:26.205Z,1828
2017-10-08T15:23:35.038Z,2068
2017-10-08T15:24:43.871Z,2316
2017-10-08T15:25:53.043Z,2388
2017-10-08T15:27:01.875Z,2224
2017-10-08T15:28:10.815Z,1672
2017-10-08T15:29:19.650Z,1680
2017-10-08T15:30:28.485Z,1660
2017-10-08T15:31:37.320Z,1824
2017-10-08T15:32:46.154Z,1944
2017-10-08T15:33:55.158Z,1564
2017-10-08T15:35:03.974Z,1588
2017-10-08T15:36:12.809Z,1704
2017-10-08T15:37:21.975Z,1740
2017-10-08T15:38:31.178Z,1760
2017-10-08T15:39:40.212Z,1532
2017-10-08T15:40:49.046Z,1616
2017-10-08T15:41:57.879Z,1852
2017-10-08T15:43:07.111Z,2000
2017-10-08T15:44:15.947Z,1824
2017-10-08T15:45:25.165Z,1692
2017-10-08T15:46:34.003Z,2056
2017-10-08T15:47:42.834Z,1480
2017-10-08T15:48:51.667Z,1244
2017-10-08T15:50:00.501Z,1192
2017-10-08T15:51:09.554Z,1148